Pealertown, Pennsylvania
Current Conditions -  °F | °C
As of 8:15 AM on Thursday 27 Nov 2014 (Local Time) from KHZL Reporting Station
Light Snow Light Snow  
Wind Chill: 28°   Ceiling: 300
Heat Index: 28°   Visibility: 4mi
Dew Point: 28°   Wind: 3mph
Humidity: 100%   Direction: 280°W
Pressure: 29.97"   Gusts: NA
Location:  41.1114°N, 76.3684°W
Report Text: KHZL 271315Z AUTO 28003KT 4SM -SN OVC003 M02/M02 A2997 RMK AO2
Loading
Personal Weather Stations






























Interactive Weather Map New forecast layout! Learn more

10-Day Weather Forecast

Advertisements
Track Severe Weather on mobile